createdAt,value
2023-02-16T00:00:30.038Z,62.07
2023-02-16T00:03:15.238Z,61.83
2023-02-16T00:05:59.610Z,62.42
2023-02-16T00:08:43.057Z,62.72
2023-02-16T00:11:47.643Z,63.29
2023-02-16T00:14:30.409Z,62.44
2023-02-16T00:17:13.590Z,62.15
2023-02-16T00:19:56.367Z,62.65
2023-02-16T00:22:40.476Z,63.32
2023-02-16T00:25:23.251Z,63.31
2023-02-16T00:28:12.206Z,62.70
2023-02-16T00:30:55.138Z,62.38
2023-02-16T00:33:38.038Z,62.28
2023-02-16T00:36:20.915Z,62.40
2023-02-16T00:39:05.038Z,62.57
2023-02-16T00:41:52.017Z,62.40
2023-02-16T00:44:37.879Z,62.65
2023-02-16T00:47:26.346Z,62.85
2023-02-16T00:50:17.109Z,62.92
2023-02-16T00:53:03.281Z,62.58
2023-02-16T00:55:47.591Z,62.22
2023-02-16T00:58:31.835Z,61.86
2023-02-16T01:01:16.823Z,61.75
2023-02-16T01:04:06.793Z,61.73
2023-02-16T01:07:07.419Z,61.82
2023-02-16T01:10:07.854Z,61.96
2023-02-16T01:12:52.036Z,62.00
2023-02-16T01:15:34.983Z,62.90
2023-02-16T01:18:19.464Z,62.96
2023-02-16T01:21:02.554Z,63.23
2023-02-16T01:23:46.388Z,63.65
2023-02-16T01:26:30.625Z,63.37
2023-02-16T01:29:17.715Z,63.35
2023-02-16T01:32:00.605Z,63.03
2023-02-16T01:34:43.533Z,62.81
2023-02-16T01:37:26.343Z,62.60
2023-02-16T01:40:21.669Z,62.67
2023-02-16T01:43:10.582Z,63.28
2023-02-16T01:46:00.492Z,63.13
2023-02-16T01:48:43.381Z,62.38
2023-02-16T01:51:32.360Z,62.19
2023-02-16T01:54:28.386Z,61.95
2023-02-16T01:57:24.196Z,62.13
2023-02-16T02:00:14.242Z,61.63
2023-02-16T02:03:21.540Z,61.33
2023-02-16T02:06:03.549Z,61.55
2023-02-16T02:08:52.445Z,61.19
2023-02-16T02:11:39.726Z,61.03
2023-02-16T02:14:28.068Z,61.45
2023-02-16T02:17:14.480Z,61.37
2023-02-16T02:20:06.842Z,61.37
2023-02-16T02:23:33.045Z,61.23
2023-02-16T02:26:57.073Z,61.28
2023-02-16T02:30:06.814Z,61.78
2023-02-16T02:33:12.726Z,61.49
2023-02-16T02:36:09.938Z,61.66
2023-02-16T02:39:04.380Z,61.17
2023-02-16T02:42:07.323Z,61.19
2023-02-16T02:45:05.503Z,61.52
2023-02-16T02:47:49.332Z,61.74
2023-02-16T02:50:40.272Z,61.58
2023-02-16T02:53:24.440Z,61.27
2023-02-16T02:56:27.415Z,61.08
2023-02-16T02:59:29.830Z,60.87
2023-02-16T03:02:14.082Z,60.88
2023-02-16T03:04:58.798Z,60.23
2023-02-16T03:07:50.121Z,60.52
2023-02-16T03:10:54.512Z,60.52
2023-02-16T03:13:40.669Z,60.21
2023-02-16T03:16:28.985Z,60.34
2023-02-16T03:19:32.262Z,60.50
2023-02-16T03:22:32.579Z,60.52
2023-02-16T03:25:33.821Z,60.20
2023-02-16T03:28:37.150Z,60.08
2023-02-16T03:31:23.494Z,59.56
2023-02-16T03:34:08.927Z,59.50
2023-02-16T03:36:58.436Z,59.39
2023-02-16T03:39:55.222Z,59.20
2023-02-16T03:42:38.031Z,59.37
2023-02-16T03:45:22.262Z,58.98
2023-02-16T03:48:05.605Z,58.83
2023-02-16T03:50:49.897Z,58.62
2023-02-16T03:53:32.841Z,58.39
2023-02-16T03:56:15.639Z,58.63
2023-02-16T03:58:58.579Z,58.67
2023-02-16T04:01:41.470Z,58.24
2023-02-16T04:04:24.369Z,58.32
2023-02-16T04:07:08.591Z,58.07
2023-02-16T04:09:51.408Z,58.20
2023-02-16T04:12:39.060Z,58.37
2023-02-16T04:15:24.584Z,58.21
2023-02-16T04:18:07.437Z,58.14
2023-02-16T04:20:50.348Z,58.22
2023-02-16T04:23:34.540Z,58.29
2023-02-16T04:26:17.376Z,58.45
2023-02-16T04:29:00.430Z,58.37
2023-02-16T04:31:43.334Z,58.57
2023-02-16T04:34:26.319Z,58.48
2023-02-16T04:37:09.160Z,58.22
2023-02-16T04:39:53.335Z,58.47
2023-02-16T04:42:36.169Z,58.56
2023-02-16T04:45:19.117Z,58.43
2023-02-16T04:48:01.937Z,58.45
2023-02-16T04:50:44.779Z,58.55
2023-02-16T04:53:27.572Z,58.57
2023-02-16T04:56:12.706Z,58.61
2023-02-16T04:58:56.632Z,58.57
2023-02-16T05:01:40.349Z,58.73
2023-02-16T05:04:23.264Z,58.68
2023-02-16T05:07:06.121Z,58.70
2023-02-16T05:09:48.915Z,58.87
2023-02-16T05:12:50.541Z,58.59
2023-02-16T05:15:33.665Z,58.73
2023-02-16T05:18:16.486Z,58.56
2023-02-16T05:21:16.691Z,58.66
2023-02-16T05:23:59.821Z,58.77
2023-02-16T05:26:42.650Z,58.99
2023-02-16T05:29:26.857Z,58.84
2023-02-16T05:32:10.060Z,58.91
2023-02-16T05:34:52.873Z,58.68
2023-02-16T05:37:35.703Z,58.64
2023-02-16T05:40:18.649Z,58.63
2023-02-16T05:43:01.501Z,58.79
2023-02-16T05:45:45.701Z,58.71
2023-02-16T05:48:28.515Z,58.72
2023-02-16T05:51:11.322Z,58.64
2023-02-16T05:53:54.334Z,58.38
2023-02-16T05:56:37.496Z,58.56
2023-02-16T05:59:20.872Z,58.56
2023-02-16T06:02:05.174Z,58.71
2023-02-16T06:04:47.991Z,58.58
2023-02-16T06:07:30.829Z,58.66
2023-02-16T06:10:13.611Z,58.74
2023-02-16T06:12:56.417Z,58.79
2023-02-16T06:15:39.503Z,58.66
2023-02-16T06:18:24.322Z,58.76
2023-02-16T06:21:07.131Z,59.11
2023-02-16T06:23:50.392Z,59.16
2023-02-16T06:26:33.322Z,59.05
2023-02-16T06:29:16.142Z,59.11
2023-02-16T06:31:59.156Z,59.20
2023-02-16T06:34:43.350Z,59.12
2023-02-16T06:37:26.149Z,59.34
2023-02-16T06:40:11.018Z,59.38
2023-02-16T06:42:53.880Z,59.45
2023-02-16T06:45:36.705Z,59.61
2023-02-16T06:48:19.574Z,59.67
2023-02-16T06:51:03.908Z,59.68
2023-02-16T06:53:46.878Z,59.52
2023-02-16T06:56:29.662Z,59.82
2023-02-16T06:59:13.177Z,59.75
2023-02-16T07:01:55.987Z,59.81
2023-02-16T07:04:38.834Z,59.75
2023-02-16T07:07:24.027Z,59.69
2023-02-16T07:10:08.456Z,59.70
2023-02-16T07:12:51.325Z,59.59
2023-02-16T07:15:34.133Z,59.68
2023-02-16T07:18:16.957Z,59.79
2023-02-16T07:21:00.316Z,59.68
2023-02-16T07:23:45.392Z,59.47
2023-02-16T07:26:28.326Z,59.67
2023-02-16T07:29:11.143Z,59.89
2023-02-16T07:31:56.540Z,59.85
2023-02-16T07:34:39.892Z,59.48
2023-02-16T07:37:22.668Z,59.25
2023-02-16T07:40:08.326Z,58.96
2023-02-16T07:42:51.163Z,58.99
2023-02-16T07:45:34.226Z,58.83
2023-02-16T07:48:18.477Z,58.76
2023-02-16T07:51:01.819Z,58.62
2023-02-16T07:53:44.689Z,58.66
2023-02-16T07:56:30.662Z,58.80
2023-02-16T07:59:16.313Z,58.58
2023-02-16T08:01:59.240Z,58.45
2023-02-16T08:04:42.363Z,58.46
2023-02-16T08:07:25.262Z,58.01
2023-02-16T08:10:09.543Z,57.93
2023-02-16T08:12:53.706Z,58.35
2023-02-16T08:15:37.458Z,58.28
2023-02-16T08:18:20.250Z,58.85
2023-02-16T08:21:13.788Z,58.39
2023-02-16T08:23:59.601Z,57.72
2023-02-16T08:26:44.780Z,56.91
2023-02-16T08:29:28.938Z,57.33
2023-02-16T08:32:13.055Z,57.23
2023-02-16T08:34:57.380Z,57.53
2023-02-16T08:37:41.441Z,57.47
2023-02-16T08:40:24.941Z,57.21
2023-02-16T08:43:07.711Z,56.97
2023-02-16T08:45:52.008Z,56.88
2023-02-16T08:48:35.582Z,57.01
2023-02-16T08:51:20.891Z,56.93
2023-02-16T08:54:07.131Z,56.78
2023-02-16T08:56:50.806Z,55.96
2023-02-16T08:59:34.975Z,54.86
2023-02-16T09:02:19.322Z,54.82
2023-02-16T09:05:02.173Z,55.39
2023-02-16T09:07:45.140Z,55.54
2023-02-16T09:10:28.014Z,55.62
2023-02-16T09:13:14.823Z,55.64
2023-02-16T09:16:04.347Z,55.02
2023-02-16T09:18:49.218Z,55.08
2023-02-16T09:21:33.357Z,55.08
2023-02-16T09:24:16.453Z,55.04
2023-02-16T09:26:59.444Z,54.40
2023-02-16T09:29:43.853Z,55.13
2023-02-16T09:32:29.445Z,54.92
2023-02-16T09:35:13.574Z,54.86
2023-02-16T09:37:57.740Z,54.72
2023-02-16T09:40:40.602Z,55.08
2023-02-16T09:43:35.709Z,54.86
2023-02-16T09:46:22.683Z,55.24
2023-02-16T09:49:06.488Z,55.00
2023-02-16T09:51:55.781Z,54.34
2023-02-16T09:54:43.852Z,55.00
2023-02-16T09:57:41.288Z,55.58
2023-02-16T10:00:32.432Z,55.68
2023-02-16T10:03:39.478Z,55.27
2023-02-16T10:06:44.186Z,54.99
2023-02-16T10:09:30.070Z,55.11
2023-02-16T10:12:19.449Z,54.98
2023-02-16T10:15:08.229Z,54.89
2023-02-16T10:17:56.703Z,54.73
2023-02-16T10:20:43.928Z,54.63
2023-02-16T10:23:41.562Z,54.48
2023-02-16T10:26:33.248Z,54.64
2023-02-16T10:29:18.016Z,54.92
2023-02-16T10:32:12.139Z,55.04
2023-02-16T10:35:10.873Z,55.11
2023-02-16T10:38:02.339Z,55.18
2023-02-16T10:40:55.096Z,55.07
2023-02-16T10:43:46.582Z,55.29
2023-02-16T10:46:33.461Z,55.25
2023-02-16T10:49:18.298Z,54.83
2023-02-16T10:52:03.756Z,54.76
2023-02-16T10:54:47.006Z,54.83
2023-02-16T10:57:32.884Z,54.86
2023-02-16T11:00:23.029Z,55.07
2023-02-16T11:03:12.956Z,54.71
2023-02-16T11:05:56.099Z,54.59
2023-02-16T11:08:49.981Z,54.47
2023-02-16T11:11:38.122Z,54.74
2023-02-16T11:14:24.209Z,54.90
2023-02-16T11:17:12.594Z,54.83
2023-02-16T11:20:01.425Z,54.84
2023-02-16T11:22:44.811Z,54.95
2023-02-16T11:25:28.212Z,54.66
2023-02-16T11:28:12.402Z,54.93
2023-02-16T11:31:01.604Z,55.08
2023-02-16T11:33:57.410Z,54.57
2023-02-16T11:36:43.220Z,54.72
2023-02-16T11:39:30.784Z,54.75
2023-02-16T11:42:24.893Z,54.72
2023-02-16T11:45:10.217Z,54.47
2023-02-16T11:47:55.844Z,54.36
2023-02-16T11:50:41.989Z,54.72
2023-02-16T11:53:27.029Z,54.75
2023-02-16T11:56:29.262Z,54.75
2023-02-16T11:59:19.171Z,54.78
2023-02-16T12:02:28.940Z,55.09
2023-02-16T12:05:25.134Z,54.80
2023-02-16T12:08:28.931Z,55.24
2023-02-16T12:11:25.482Z,55.61
2023-02-16T12:14:24.957Z,55.65
2023-02-16T12:17:19.377Z,55.96
2023-02-16T12:20:14.936Z,56.14
2023-02-16T12:23:05.622Z,55.83
2023-02-16T12:26:02.442Z,55.71
2023-02-16T12:28:55.455Z,55.89
2023-02-16T12:31:55.887Z,55.86
2023-02-16T12:34:50.998Z,55.85
2023-02-16T12:37:41.581Z,56.05
2023-02-16T12:40:38.433Z,55.90
2023-02-16T12:43:33.766Z,55.85
2023-02-16T12:46:23.979Z,56.04
2023-02-16T12:49:14.209Z,55.88
2023-02-16T12:52:05.320Z,55.67
2023-02-16T12:54:52.636Z,55.67
2023-02-16T12:57:36.829Z,55.74
2023-02-16T13:00:27.055Z,55.83
2023-02-16T13:03:25.044Z,55.95
2023-02-16T13:06:18.976Z,55.76
2023-02-16T13:09:12.490Z,55.39
2023-02-16T13:12:02.324Z,55.38
2023-02-16T13:14:50.052Z,55.67
2023-02-16T13:17:40.257Z,55.50
2023-02-16T13:20:24.930Z,55.21
2023-02-16T13:23:28.411Z,55.06
2023-02-16T13:26:50.562Z,54.86
2023-02-16T13:30:06.056Z,55.23
2023-02-16T13:33:04.272Z,54.83
2023-02-16T13:36:19.577Z,54.42
2023-02-16T13:39:21.505Z,55.05
2023-02-16T13:42:32.932Z,54.83
2023-02-16T13:45:19.342Z,55.09
2023-02-16T13:48:03.551Z,55.09
2023-02-16T13:50:47.838Z,55.06
2023-02-16T13:53:36.224Z,55.08
2023-02-16T13:56:23.849Z,54.97
2023-02-16T13:59:59.338Z,55.03
2023-02-16T14:03:04.655Z,54.73
2023-02-16T14:05:48.276Z,54.79
2023-02-16T14:08:32.163Z,54.85
2023-02-16T14:11:14.985Z,54.91
2023-02-16T14:13:57.838Z,54.92
2023-02-16T14:16:40.637Z,55.08
2023-02-16T14:19:27.065Z,55.03
2023-02-16T14:22:12.658Z,55.28
2023-02-16T14:24:58.733Z,55.13
2023-02-16T14:27:44.958Z,55.30
2023-02-16T14:30:32.205Z,55.26
2023-02-16T14:33:23.985Z,55.38
2023-02-16T14:36:15.904Z,55.58
2023-02-16T14:39:00.316Z,55.61
2023-02-16T14:41:43.497Z,55.87
2023-02-16T14:44:41.519Z,55.76
2023-02-16T14:47:36.379Z,56.00
2023-02-16T14:50:32.824Z,56.22
2023-02-16T14:53:37.323Z,56.29
2023-02-16T14:56:35.463Z,56.30
2023-02-16T14:59:31.576Z,56.45
2023-02-16T15:02:31.736Z,56.31
2023-02-16T15:05:18.858Z,56.24
2023-02-16T15:08:11.279Z,56.52
2023-02-16T15:10:58.468Z,56.82
2023-02-16T15:13:42.866Z,56.63
2023-02-16T15:16:25.820Z,57.26
2023-02-16T15:19:13.345Z,57.28
2023-02-16T15:22:09.532Z,57.22
2023-02-16T15:24:57.390Z,57.29
2023-02-16T15:27:42.303Z,57.47
2023-02-16T15:30:26.376Z,57.71
2023-02-16T15:33:16.072Z,57.71
2023-02-16T15:36:00.843Z,57.67
2023-02-16T15:38:55.469Z,57.67
2023-02-16T15:41:40.407Z,57.61
2023-02-16T15:44:34.295Z,57.52
2023-02-16T15:47:22.555Z,57.81
2023-02-16T15:50:14.324Z,57.92
2023-02-16T15:52:57.130Z,58.67
2023-02-16T15:55:44.589Z,58.70
2023-02-16T15:58:27.889Z,58.20
2023-02-16T16:01:13.970Z,57.92
2023-02-16T16:03:58.643Z,57.92
2023-02-16T16:06:41.937Z,58.06
2023-02-16T16:09:27.680Z,58.08
2023-02-16T16:12:14.353Z,58.32
2023-02-16T16:14:59.597Z,58.05
2023-02-16T16:17:43.715Z,58.41
2023-02-16T16:20:35.098Z,58.53
2023-02-16T16:23:27.003Z,58.66
2023-02-16T16:26:21.013Z,58.81
2023-02-16T16:29:04.652Z,58.81
2023-02-16T16:31:54.057Z,58.71
2023-02-16T16:34:40.683Z,58.81
2023-02-16T16:37:28.482Z,58.80
2023-02-16T16:40:23.842Z,58.64
2023-02-16T16:43:17.389Z,59.03
2023-02-16T16:46:14.322Z,59.02
2023-02-16T16:49:03.346Z,59.23
2023-02-16T16:51:53.555Z,59.04
2023-02-16T16:54:36.547Z,59.28
2023-02-16T16:57:20.269Z,59.19
2023-02-16T17:00:03.399Z,59.32
2023-02-16T17:02:47.190Z,59.07
2023-02-16T17:05:30.125Z,58.74
2023-02-16T17:08:14.223Z,58.93
2023-02-16T17:10:57.272Z,59.06
2023-02-16T17:13:40.338Z,59.32
2023-02-16T17:16:27.033Z,59.20
2023-02-16T17:19:12.925Z,59.29
2023-02-16T17:21:55.795Z,59.53
2023-02-16T17:24:40.361Z,59.26
2023-02-16T17:27:23.086Z,59.68
2023-02-16T17:30:06.931Z,59.51
2023-02-16T17:32:49.765Z,59.39
2023-02-16T17:35:33.001Z,59.65
2023-02-16T17:38:20.042Z,59.58
2023-02-16T17:41:04.293Z,59.58
2023-02-16T17:43:47.078Z,59.64
2023-02-16T17:46:31.583Z,59.77
2023-02-16T17:49:16.152Z,59.75
2023-02-16T17:51:59.093Z,60.00
2023-02-16T17:54:41.885Z,60.28
2023-02-16T17:57:26.218Z,59.90
2023-02-16T18:00:16.942Z,59.92
2023-02-16T18:02:59.739Z,59.97
2023-02-16T18:05:42.773Z,59.75
2023-02-16T18:08:25.587Z,59.59
2023-02-16T18:11:08.368Z,59.78
2023-02-16T18:13:52.544Z,59.59
2023-02-16T18:16:35.427Z,59.63
2023-02-16T18:19:19.416Z,59.75
2023-02-16T18:22:02.392Z,59.73
2023-02-16T18:24:45.342Z,59.82
2023-02-16T18:27:29.446Z,59.86
2023-02-16T18:30:15.427Z,59.83
2023-02-16T18:32:58.546Z,60.15
2023-02-16T18:35:41.610Z,60.24
2023-02-16T18:38:25.113Z,60.77
2023-02-16T18:41:08.201Z,60.54
2023-02-16T18:43:50.974Z,60.69
2023-02-16T18:46:35.107Z,60.59
2023-02-16T18:49:17.918Z,60.57
2023-02-16T18:52:00.701Z,60.55
2023-02-16T18:54:43.523Z,60.16
2023-02-16T18:57:26.369Z,60.36
2023-02-16T19:00:11.369Z,60.28
2023-02-16T19:02:56.922Z,60.31
2023-02-16T19:05:39.754Z,60.36
2023-02-16T19:08:22.537Z,60.28
2023-02-16T19:11:05.771Z,60.38
2023-02-16T19:13:49.563Z,60.39
2023-02-16T19:16:32.477Z,60.42
2023-02-16T19:19:16.638Z,60.38
2023-02-16T19:21:59.434Z,60.37
2023-02-16T19:24:42.489Z,60.49
2023-02-16T19:27:25.298Z,61.04
2023-02-16T19:30:09.907Z,61.10
2023-02-16T19:32:52.560Z,61.34
2023-02-16T19:35:36.689Z,60.82
2023-02-16T19:38:19.495Z,60.99
2023-02-16T19:41:02.307Z,60.84
2023-02-16T19:43:45.827Z,61.30
2023-02-16T19:46:29.488Z,60.98
2023-02-16T19:49:15.107Z,60.99
2023-02-16T19:52:02.334Z,61.15
2023-02-16T19:54:45.188Z,61.37
2023-02-16T19:57:28.026Z,61.22
2023-02-16T20:00:14.109Z,61.18
2023-02-16T20:02:57.096Z,61.23
2023-02-16T20:05:40.058Z,61.31
2023-02-16T20:08:24.246Z,61.32
2023-02-16T20:11:08.469Z,61.41
2023-02-16T20:13:52.520Z,61.69
2023-02-16T20:16:35.922Z,61.63
2023-02-16T20:19:19.029Z,61.88
2023-02-16T20:22:01.815Z,61.88
2023-02-16T20:24:45.994Z,61.92
2023-02-16T20:27:29.500Z,61.86
2023-02-16T20:30:17.790Z,62.02
2023-02-16T20:33:01.025Z,62.25
2023-02-16T20:35:43.982Z,62.21
2023-02-16T20:38:26.751Z,62.18
2023-02-16T20:41:11.017Z,61.98
2023-02-16T20:43:53.845Z,61.81
2023-02-16T20:46:37.561Z,62.19
2023-02-16T20:49:20.351Z,62.26
2023-02-16T20:52:03.549Z,62.09
2023-02-16T20:54:46.317Z,62.13
2023-02-16T20:57:30.501Z,62.11
2023-02-16T21:00:20.196Z,61.96
2023-02-16T21:03:03.035Z,61.92
2023-02-16T21:05:45.877Z,62.01
2023-02-16T21:08:28.782Z,62.09
2023-02-16T21:11:11.970Z,62.06
2023-02-16T21:13:57.644Z,61.89
2023-02-16T21:16:41.807Z,61.95
2023-02-16T21:19:24.665Z,62.08
2023-02-16T21:22:07.519Z,62.06
2023-02-16T21:24:50.313Z,62.10
2023-02-16T21:27:33.165Z,61.68
2023-02-16T21:30:17.586Z,61.69
2023-02-16T21:33:00.411Z,61.73
2023-02-16T21:35:43.206Z,61.67
2023-02-16T21:38:25.998Z,61.73
2023-02-16T21:41:28.688Z,61.78
2023-02-16T21:44:13.235Z,61.76
2023-02-16T21:46:57.646Z,61.84
2023-02-16T21:49:39.967Z,61.83
2023-02-16T21:52:22.794Z,61.87
2023-02-16T21:55:23.593Z,62.22
2023-02-16T21:58:07.974Z,62.07
2023-02-16T22:00:52.886Z,62.04
2023-02-16T22:03:37.439Z,62.04
2023-02-16T22:06:20.078Z,61.99
2023-02-16T22:09:06.114Z,61.99
2023-02-16T22:11:49.385Z,62.17
2023-02-16T22:14:33.214Z,62.38
2023-02-16T22:17:16.052Z,62.38
2023-02-16T22:20:00.178Z,62.45
2023-02-16T22:22:43.498Z,62.26
2023-02-16T22:25:26.282Z,62.32
2023-02-16T22:28:09.738Z,62.23
2023-02-16T22:30:52.563Z,61.93
2023-02-16T22:33:36.044Z,62.00
2023-02-16T22:36:20.220Z,62.11
2023-02-16T22:39:03.255Z,61.96
2023-02-16T22:41:46.384Z,61.89
2023-02-16T22:44:29.144Z,61.70
2023-02-16T22:47:11.982Z,61.74
2023-02-16T22:49:54.753Z,62.03
2023-02-16T22:52:38.894Z,62.41
2023-02-16T22:55:21.657Z,62.18
2023-02-16T22:58:04.465Z,62.03
2023-02-16T23:00:47.981Z,62.55
2023-02-16T23:03:31.222Z,62.22
2023-02-16T23:06:15.458Z,62.19
2023-02-16T23:09:02.513Z,62.62
2023-02-16T23:11:45.673Z,62.18
2023-02-16T23:14:29.310Z,62.64
2023-02-16T23:17:12.172Z,62.66
2023-02-16T23:19:54.981Z,62.80
2023-02-16T23:22:37.768Z,62.64
2023-02-16T23:25:34.342Z,62.69
2023-02-16T23:28:17.524Z,63.00
2023-02-16T23:31:00.437Z,63.50
2023-02-16T23:33:43.498Z,63.51
2023-02-16T23:36:26.299Z,64.22
2023-02-16T23:39:11.731Z,64.68
2023-02-16T23:41:56.752Z,64.30
2023-02-16T23:44:39.496Z,64.58
2023-02-16T23:47:22.728Z,65.11
2023-02-16T23:50:06.433Z,65.14
2023-02-16T23:52:49.470Z,65.03
2023-02-16T23:55:32.198Z,64.83
2023-02-16T23:58:16.350Z,65.03
